S.s. Legacy — WDG8495 — position and weather

sailwx.info

Track history (hours):
 
Tides and Currents Weather Stations Pressure Air Temp Water Temp Dewpoint Dewpoint Depression Visibility Wind Speed Wind Dir Waves Ship Positions

S.s. Legacy

Owner: InnerSea Discoveries, LLC, Seattle, WA. More information available from US FCC via Universal Licensing System and Coast Guard Vessel Documentation Center.

Last reported at 2017-Oct-31 15:16 UTC. Time now 2017-Nov-18 12:31 UTC.
Position N 47°39' W 122°23'.
Warning: this ship's position is 17 days out of date.

Length 64 m; draft 3 m.

MMSI: 367578110.

Date/timePositionNaut miles runAvg speedWind from/ knotsBaromVisibWave heightAir tempDewpointWater temp
2017-Oct-31 15:16N 47°39' W 122°23'0 0.7
2017-Oct-31 15:00N 47°40' W 122°23'1 1.8
2017-Oct-31 14:30N 47°40' W 122°24'1 2.6
2017-Oct-31 14:00N 47°41' W 122°25'4 8.2
2017-Oct-31 13:30N 47°45' W 122°26'4 7.6
2017-Oct-31 13:00N 47°49' W 122°28'4 7.5
2017-Oct-31 12:30N 47°52' W 122°29'3 6.9
2017-Oct-31 12:00N 47°56' W 122°31'4 7.1
2017-Oct-31 11:30N 47°58' W 122°35'9 5.6
2017-Oct-31 09:57N 48°06' W 122°40'3 5.8
2017-Oct-31 09:28N 48°08' W 122°43'3 6.5
2017-Oct-31 08:57N 48°10' W 122°47'3 6.3
2017-Oct-31 08:25N 48°11' W 122°51'2 5.6
2017-Oct-31 08:00N 48°11' W 122°55'4 5.5
2017-Oct-31 07:16N 48°12' W 123°01'2 5.6
2017-Oct-31 06:58N 48°12' W 123°03'3 6.2
2017-Oct-31 06:30N 48°12' W 123°08'3 6.3
2017-Oct-31 05:58N 48°12' W 123°13'3 7.5
2017-Oct-31 05:30N 48°12' W 123°18'4 7.2
2017-Oct-31 05:00N 48°12' W 123°23'4 7.8
2017-Oct-31 04:30N 48°12' W 123°29'5 7.3
2017-Oct-31 03:45N 48°12' W 123°37'2 6.7
2017-Oct-31 03:30N 48°12' W 123°40'6 6.8
2017-Oct-31 02:37N 48°12' W 123°49'1 7.0
2017-Oct-31 02:24N 48°12' W 123°51'3 6.5
2017-Oct-31 01:59N 48°12' W 123°55'3 6.3
2017-Oct-31 01:30N 48°13' W 123°59'3 7.0
2017-Oct-31 01:00N 48°15' W 124°04'4 7.2
2017-Oct-31 00:30N 48°16' W 124°09'4 8.2
2017-Oct-31 00:00N 48°18' W 124°14'4 7.8
2017-Oct-30 23:30N 48°20' W 124°20'4 7.7
2017-Oct-30 23:00N 48°21' W 124°25'4 8.1
2017-Oct-30 22:30N 48°23' W 124°31'4 8.6
2017-Oct-30 22:00N 48°25' W 124°36'5 8.8
2017-Oct-30 21:29N 48°27' W 124°43'5 9.4
2017-Oct-30 21:00N 48°27' W 124°49'4 8.8
2017-Oct-30 20:30N 48°26' W 124°56'67 8.5
2017-Oct-30 12:35N 47°18' W 124°57'15 9.1
2017-Oct-30 10:55N 47°05' W 124°47'4 9.9
2017-Oct-30 10:30N 47°01' W 124°45'510.2
2017-Oct-30 10:00N 46°56' W 124°42'5 9.8
2017-Oct-30 09:30N 46°52' W 124°40'5 9.8
2017-Oct-30 09:01N 46°47' W 124°37'510.1
2017-Oct-30 08:31N 46°42' W 124°34'510.0
2017-Oct-30 08:01N 46°38' W 124°32'5 9.4
2017-Oct-30 07:30N 46°33' W 124°29'5 9.8
2017-Oct-30 07:01N 46°29' W 124°26'5 9.7
2017-Oct-30 06:30N 46°25' W 124°22'5 9.7
2017-Oct-30 06:00N 46°21' W 124°18'5 9.3
2017-Oct-30 05:30N 46°18' W 124°13'5 9.1
2017-Oct-30 05:01N 46°14' W 124°09'510.3
2017-Oct-30 04:31N 46°15' W 124°02'5 9.5
2017-Oct-30 04:00N 46°12' W 123°57'4 9.0
2017-Oct-30 03:31N 46°12' W 123°50'7 9.4
2017-Oct-30 02:47N 46°15' W 123°42'3 9.4
2017-Oct-30 02:30N 46°16' W 123°38'6 9.3
2017-Oct-30 01:49N 46°16' W 123°29'3 9.6
2017-Oct-30 01:30N 46°14' W 123°26'5 9.9
2017-Oct-30 01:00N 46°09' W 123°24'510.4
2017-Oct-30 00:30N 46°09' W 123°16'611.0
2017-Oct-30 00:00N 46°11' W 123°09'510.7
2017-Oct-29 23:30N 46°09' W 123°02'611.5
2017-Oct-29 23:00N 46°06' W 122°56'611.4
2017-Oct-29 22:30N 46°01' W 122°51'611.3
2017-Oct-29 22:01N 45°55' W 122°48'510.9
2017-Oct-29 21:31N 45°50' W 122°47'510.6
2017-Oct-29 21:00N 45°45' W 122°46'510.6
2017-Oct-29 20:30N 45°40' W 122°46'5 9.3
2017-Oct-29 20:00N 45°35' W 122°46'5 9.2
2017-Oct-29 19:30N 45°32' W 122°40'1 0.9
2017-Oct-29 18:19N 45°31' W 122°40'0 0.0
2017-Oct-29 17:27N 45°31' W 122°40'0 0.0
2017-Oct-29 16:00N 45°31' W 122°40'0 0.0
2017-Oct-28 18:57N 45°31' W 122°40'0 0.0
2017-Oct-28 18:30N 45°31' W 122°40'0 0.0
2017-Oct-28 18:00N 45°31' W 122°40'0 0.0
2017-Oct-28 17:21N 45°31' W 122°40'0 0.0
2017-Oct-28 16:48N 45°31' W 122°40'0 0.0
2017-Oct-28 16:27N 45°31' W 122°40'0 0.0
2017-Oct-28 15:57N 45°31' W 122°40'0 0.0
2017-Oct-28 15:27N 45°31' W 122°40'0 0.0
2017-Oct-28 14:27N 45°31' W 122°40'0 0.0
2017-Oct-28 14:00N 45°31' W 122°40'1 2.3
2017-Oct-28 13:31N 45°32' W 122°40'2 4.0
2017-Oct-28 13:00N 45°33' W 122°43'2 4.0
2017-Oct-28 12:30N 45°35' W 122°45'2 3.8
2017-Oct-28 12:00N 45°36' W 122°47'2 3.6
2017-Oct-28 11:22N 45°38' W 122°47'1 4.0
2017-Oct-28 11:00N 45°39' W 122°46'2 3.2
2017-Oct-28 10:31N 45°41' W 122°47'2 3.8
2017-Oct-28 10:00N 45°43' W 122°46'2 4.0
2017-Oct-28 09:30N 45°45' W 122°46'2 3.4
2017-Oct-28 09:00N 45°46' W 122°46'1 1.3
2017-Oct-28 08:30N 45°47' W 122°46'3 5.6
2017-Oct-28 08:00N 45°44' W 122°46'3 5.6
2017-Oct-28 07:31N 45°41' W 122°47'0 0.1
2017-Oct-28 07:01N 45°41' W 122°47'2 4.4
2017-Oct-28 06:30N 45°44' W 122°46'2 4.7
2017-Oct-28 06:00N 45°46' W 122°46'1 2.2
2017-Oct-28 05:30N 45°47' W 122°46'2 4.7
2017-Oct-28 05:00N 45°45' W 122°46'3 5.8
2017-Oct-28 04:30N 45°42' W 122°46'3 6.0
2017-Oct-28 04:00N 45°39' W 122°46'3 5.5
2017-Oct-28 03:30N 45°36' W 122°47'3 6.2
2017-Oct-28 03:00N 45°34' W 122°44'3 6.1
2017-Oct-28 02:30N 45°32' W 122°40'1 2.6
2017-Oct-28 02:01N 45°31' W 122°40'0 0.0
2017-Oct-28 01:30N 45°31' W 122°40'0 0.2
2017-Oct-28 01:00N 45°30' W 122°40'1 2.4
2017-Oct-28 00:30N 45°29' W 122°40'2 3.3
2017-Oct-27 23:59N 45°28' W 122°40'1 2.8
2017-Oct-27 23:30N 45°26' W 122°39'2 3.2
2017-Oct-27 23:00N 45°28' W 122°40'2 3.9
2017-Oct-27 22:30N 45°30' W 122°40'1 2.2
2017-Oct-27 21:59N 45°31' W 122°40'0 0.0
2017-Oct-27 21:17N 45°31' W 122°40'0 0.0
2017-Oct-27 20:59N 45°31' W 122°40'0 0.0
2017-Oct-27 20:29N 45°31' W 122°40'0 0.0
2017-Oct-27 19:59N 45°31' W 122°40'0 0.0
2017-Oct-27 19:29N 45°31' W 122°40'0 0.0
2017-Oct-27 18:59N 45°31' W 122°40'0 0.0
2017-Oct-27 18:29N 45°31' W 122°40'0 0.0
2017-Oct-27 17:59N 45°31' W 122°40'0 0.0
2017-Oct-27 17:17N 45°31' W 122°40'0 0.0
2017-Oct-27 16:35N 45°31' W 122°40'0 0.0
2017-Oct-27 16:23N 45°31' W 122°40'0 0.0
2017-Oct-27 15:41N 45°31' W 122°40'0 0.0
2017-Oct-27 15:29N 45°31' W 122°40'0 0.0
2017-Oct-27 14:59N 45°31' W 122°40'0 0.0
2017-Oct-27 14:30N 45°31' W 122°40'0 0.0
2017-Oct-27 14:00N 45°31' W 122°40'2 3.6
2017-Oct-27 13:30N 45°33' W 122°41'3 6.5
2017-Oct-27 13:00N 45°35' W 122°45'3 6.1
2017-Oct-27 12:31N 45°37' W 122°47'4 6.3
2017-Oct-27 11:52N 45°41' W 122°47'3 7.6
2017-Oct-27 11:30N 45°44' W 122°46'4 7.2
2017-Oct-27 11:01N 45°47' W 122°47'0 0.3
2017-Oct-27 10:20N 45°47' W 122°47'3 8.8
2017-Oct-27 10:01N 45°44' W 122°46'4 8.5
2017-Oct-27 09:31N 45°40' W 122°46'4 7.0
2017-Oct-27 09:01N 45°38' W 122°42'4 7.4
2017-Oct-27 08:30N 45°36' W 122°38'4 7.8
2017-Oct-27 08:00N 45°36' W 122°32'4 7.7
2017-Oct-27 07:29N 45°34' W 122°27'4 7.6
2017-Oct-27 07:00N 45°34' W 122°22'4 7.3
2017-Oct-27 06:31N 45°33' W 122°17'4 7.7
2017-Oct-27 06:00N 45°34' W 122°12'4 7.1
2017-Oct-27 05:30N 45°35' W 122°07'4 7.5
2017-Oct-27 05:00N 45°37' W 122°02'  
2017-Oct-22 16:42N 45°38' W 121°56'1 2.0
2017-Oct-22 16:25N 45°38' W 121°57'1 2.7
2017-Oct-22 16:00N 45°38' W 121°58'4 8.1
2017-Oct-22 15:30N 45°36' W 122°04'510.4
2017-Oct-22 15:00N 45°35' W 122°11'5 9.7
2017-Oct-22 14:30N 45°33' W 122°17'1 2.1
2017-Oct-22 14:00N 45°33' W 122°18'0 0.0
2017-Oct-22 13:30N 45°33' W 122°18'0 0.0
2017-Oct-22 13:00N 45°33' W 122°18'0 0.0
2017-Oct-22 12:30N 45°33' W 122°18'0 0.0
2017-Oct-22 11:53N 45°33' W 122°18'0 0.0
2017-Oct-22 11:30N 45°33' W 122°18'0 0.0
2017-Oct-22 10:57N 45°33' W 122°18'0 0.0
2017-Oct-22 10:29N 45°33' W 122°18'0 0.0
2017-Oct-22 09:59N 45°33' W 122°18'0 0.0
2017-Oct-22 09:24N 45°33' W 122°18'0 0.0
2017-Oct-22 08:39N 45°33' W 122°18'0 0.0
2017-Oct-22 08:24N 45°33' W 122°18'0 0.0
2017-Oct-22 07:53N 45°33' W 122°18'0 0.0
2017-Oct-22 07:29N 45°33' W 122°18'0 0.0
2017-Oct-22 06:56N 45°33' W 122°18'0 0.0
2017-Oct-22 06:18N 45°33' W 122°18'0 0.0
2017-Oct-22 05:59N 45°33' W 122°18'0 0.2
2017-Oct-22 05:30N 45°33' W 122°19'4 8.2
2017-Oct-22 05:00N 45°34' W 122°24'4 9.0
2017-Oct-22 04:30N 45°35' W 122°30'5 9.5
2017-Oct-22 04:00N 45°36' W 122°37'5 9.9
2017-Oct-22 03:29N 45°39' W 122°44'3 6.8
2017-Oct-22 03:00N 45°36' W 122°47'3 6.5
2017-Oct-22 02:30N 45°34' W 122°44'4 8.0
2017-Oct-22 02:00N 45°31' W 122°40'0 0.2
2017-Oct-22 01:19N 45°31' W 122°40'0 0.0
2017-Oct-22 00:58N 45°31' W 122°40'0 0.0
2017-Oct-22 00:28N 45°31' W 122°40'0 0.0
2017-Oct-21 23:52N 45°31' W 122°40'0 0.0
2017-Oct-21 23:28N 45°31' W 122°40'0 0.0
2017-Oct-21 22:49N 45°31' W 122°40'0 0.0
2017-Oct-21 22:13N 45°31' W 122°40'0 0.0
2017-Oct-21 21:49N 45°31' W 122°40'0 0.0
2017-Oct-21 21:13N 45°31' W 122°40'0 0.0
2017-Oct-21 20:25N 45°31' W 122°40'0 0.0
2017-Oct-21 19:49N 45°31' W 122°40'0 0.0
2017-Oct-21 18:55N 45°31' W 122°40'0 0.0
2017-Oct-21 18:19N 45°31' W 122°40'0 0.0
2017-Oct-21 17:01N 45°31' W 122°40'0 0.0
2017-Oct-21 16:49N 45°31' W 122°40'0 0.0
2017-Oct-21 16:19N 45°31' W 122°40'0 0.0
2017-Oct-21 15:55N 45°31' W 122°40'  
Track history (hours):
 
Tides and Currents Weather Stations Pressure Air Temp Water Temp Dewpoint Dewpoint Depression Visibility Wind Speed Wind Dir Waves Ship Positions

S.s. Legacy

Owner: InnerSea Discoveries, LLC, Seattle, WA. More information available from US FCC via Universal Licensing System and Coast Guard Vessel Documentation Center.

Last reported at 2017-Oct-31 15:16 UTC. Time now 2017-Nov-18 12:31 UTC.
Position N 47°39' W 122°23'.
Warning: this ship's position is 17 days out of date.

Length 64 m; draft 3 m.

MMSI: 367578110.

Date/timePositionNaut miles runAvg speedWind from/ knotsBaromVisibWave heightAir tempDewpointWater temp
2017-Oct-31 15:16N 47°39' W 122°23'0 0.7
2017-Oct-31 15:00N 47°40' W 122°23'1 1.8
2017-Oct-31 14:30N 47°40' W 122°24'1 2.6
2017-Oct-31 14:00N 47°41' W 122°25'4 8.2
2017-Oct-31 13:30N 47°45' W 122°26'4 7.6
2017-Oct-31 13:00N 47°49' W 122°28'4 7.5
2017-Oct-31 12:30N 47°52' W 122°29'3 6.9
2017-Oct-31 12:00N 47°56' W 122°31'4 7.1
2017-Oct-31 11:30N 47°58' W 122°35'9 5.6
2017-Oct-31 09:57N 48°06' W 122°40'3 5.8
2017-Oct-31 09:28N 48°08' W 122°43'3 6.5
2017-Oct-31 08:57N 48°10' W 122°47'3 6.3
2017-Oct-31 08:25N 48°11' W 122°51'2 5.6
2017-Oct-31 08:00N 48°11' W 122°55'4 5.5
2017-Oct-31 07:16N 48°12' W 123°01'2 5.6
2017-Oct-31 06:58N 48°12' W 123°03'3 6.2
2017-Oct-31 06:30N 48°12' W 123°08'3 6.3
2017-Oct-31 05:58N 48°12' W 123°13'3 7.5
2017-Oct-31 05:30N 48°12' W 123°18'4 7.2
2017-Oct-31 05:00N 48°12' W 123°23'4 7.8
2017-Oct-31 04:30N 48°12' W 123°29'5 7.3
2017-Oct-31 03:45N 48°12' W 123°37'2 6.7
2017-Oct-31 03:30N 48°12' W 123°40'6 6.8
2017-Oct-31 02:37N 48°12' W 123°49'1 7.0
2017-Oct-31 02:24N 48°12' W 123°51'3 6.5
2017-Oct-31 01:59N 48°12' W 123°55'3 6.3
2017-Oct-31 01:30N 48°13' W 123°59'3 7.0
2017-Oct-31 01:00N 48°15' W 124°04'4 7.2
2017-Oct-31 00:30N 48°16' W 124°09'4 8.2
2017-Oct-31 00:00N 48°18' W 124°14'4 7.8
2017-Oct-30 23:30N 48°20' W 124°20'4 7.7
2017-Oct-30 23:00N 48°21' W 124°25'4 8.1
2017-Oct-30 22:30N 48°23' W 124°31'4 8.6
2017-Oct-30 22:00N 48°25' W 124°36'5 8.8
2017-Oct-30 21:29N 48°27' W 124°43'5 9.4
2017-Oct-30 21:00N 48°27' W 124°49'4 8.8
2017-Oct-30 20:30N 48°26' W 124°56'67 8.5
2017-Oct-30 12:35N 47°18' W 124°57'15 9.1
2017-Oct-30 10:55N 47°05' W 124°47'4 9.9
2017-Oct-30 10:30N 47°01' W 124°45'510.2
2017-Oct-30 10:00N 46°56' W 124°42'5 9.8
2017-Oct-30 09:30N 46°52' W 124°40'5 9.8
2017-Oct-30 09:01N 46°47' W 124°37'510.1
2017-Oct-30 08:31N 46°42' W 124°34'510.0
2017-Oct-30 08:01N 46°38' W 124°32'5 9.4
2017-Oct-30 07:30N 46°33' W 124°29'5 9.8
2017-Oct-30 07:01N 46°29' W 124°26'5 9.7
2017-Oct-30 06:30N 46°25' W 124°22'5 9.7
2017-Oct-30 06:00N 46°21' W 124°18'5 9.3
2017-Oct-30 05:30N 46°18' W 124°13'5 9.1
2017-Oct-30 05:01N 46°14' W 124°09'510.3
2017-Oct-30 04:31N 46°15' W 124°02'5 9.5
2017-Oct-30 04:00N 46°12' W 123°57'4 9.0
2017-Oct-30 03:31N 46°12' W 123°50'7 9.4
2017-Oct-30 02:47N 46°15' W 123°42'3 9.4
2017-Oct-30 02:30N 46°16' W 123°38'6 9.3
2017-Oct-30 01:49N 46°16' W 123°29'3 9.6
2017-Oct-30 01:30N 46°14' W 123°26'5 9.9
2017-Oct-30 01:00N 46°09' W 123°24'510.4
2017-Oct-30 00:30N 46°09' W 123°16'611.0
2017-Oct-30 00:00N 46°11' W 123°09'510.7
2017-Oct-29 23:30N 46°09' W 123°02'611.5
2017-Oct-29 23:00N 46°06' W 122°56'611.4
2017-Oct-29 22:30N 46°01' W 122°51'611.3
2017-Oct-29 22:01N 45°55' W 122°48'510.9
2017-Oct-29 21:31N 45°50' W 122°47'510.6
2017-Oct-29 21:00N 45°45' W 122°46'510.6
2017-Oct-29 20:30N 45°40' W 122°46'5 9.3
2017-Oct-29 20:00N 45°35' W 122°46'5 9.2
2017-Oct-29 19:30N 45°32' W 122°40'1 0.9
2017-Oct-29 18:19N 45°31' W 122°40'0 0.0
2017-Oct-29 17:27N 45°31' W 122°40'0 0.0
2017-Oct-29 16:00N 45°31' W 122°40'0 0.0
2017-Oct-28 18:57N 45°31' W 122°40'0 0.0
2017-Oct-28 18:30N 45°31' W 122°40'0 0.0
2017-Oct-28 18:00N 45°31' W 122°40'0 0.0
2017-Oct-28 17:21N 45°31' W 122°40'0 0.0
2017-Oct-28 16:48N 45°31' W 122°40'0 0.0
2017-Oct-28 16:27N 45°31' W 122°40'0 0.0
2017-Oct-28 15:57N 45°31' W 122°40'0 0.0
2017-Oct-28 15:27N 45°31' W 122°40'0 0.0
2017-Oct-28 14:27N 45°31' W 122°40'0 0.0
2017-Oct-28 14:00N 45°31' W 122°40'1 2.3
2017-Oct-28 13:31N 45°32' W 122°40'2 4.0
2017-Oct-28 13:00N 45°33' W 122°43'2 4.0
2017-Oct-28 12:30N 45°35' W 122°45'2 3.8
2017-Oct-28 12:00N 45°36' W 122°47'2 3.6
2017-Oct-28 11:22N 45°38' W 122°47'1 4.0
2017-Oct-28 11:00N 45°39' W 122°46'2 3.2
2017-Oct-28 10:31N 45°41' W 122°47'2 3.8
2017-Oct-28 10:00N 45°43' W 122°46'2 4.0
2017-Oct-28 09:30N 45°45' W 122°46'2 3.4
2017-Oct-28 09:00N 45°46' W 122°46'1 1.3
2017-Oct-28 08:30N 45°47' W 122°46'3 5.6
2017-Oct-28 08:00N 45°44' W 122°46'3 5.6
2017-Oct-28 07:31N 45°41' W 122°47'0 0.1
2017-Oct-28 07:01N 45°41' W 122°47'2 4.4
2017-Oct-28 06:30N 45°44' W 122°46'2 4.7
2017-Oct-28 06:00N 45°46' W 122°46'1 2.2
2017-Oct-28 05:30N 45°47' W 122°46'2 4.7
2017-Oct-28 05:00N 45°45' W 122°46'3 5.8
2017-Oct-28 04:30N 45°42' W 122°46'3 6.0
2017-Oct-28 04:00N 45°39' W 122°46'3 5.5
2017-Oct-28 03:30N 45°36' W 122°47'3 6.2
2017-Oct-28 03:00N 45°34' W 122°44'3 6.1
2017-Oct-28 02:30N 45°32' W 122°40'1 2.6
2017-Oct-28 02:01N 45°31' W 122°40'0 0.0
2017-Oct-28 01:30N 45°31' W 122°40'0 0.2
2017-Oct-28 01:00N 45°30' W 122°40'1 2.4
2017-Oct-28 00:30N 45°29' W 122°40'2 3.3
2017-Oct-27 23:59N 45°28' W 122°40'1 2.8
2017-Oct-27 23:30N 45°26' W 122°39'2 3.2
2017-Oct-27 23:00N 45°28' W 122°40'2 3.9
2017-Oct-27 22:30N 45°30' W 122°40'1 2.2
2017-Oct-27 21:59N 45°31' W 122°40'0 0.0
2017-Oct-27 21:17N 45°31' W 122°40'0 0.0
2017-Oct-27 20:59N 45°31' W 122°40'0 0.0
2017-Oct-27 20:29N 45°31' W 122°40'0 0.0
2017-Oct-27 19:59N 45°31' W 122°40'0 0.0
2017-Oct-27 19:29N 45°31' W 122°40'0 0.0
2017-Oct-27 18:59N 45°31' W 122°40'0 0.0
2017-Oct-27 18:29N 45°31' W 122°40'0 0.0
2017-Oct-27 17:59N 45°31' W 122°40'0 0.0
2017-Oct-27 17:17N 45°31' W 122°40'0 0.0
2017-Oct-27 16:35N 45°31' W 122°40'0 0.0
2017-Oct-27 16:23N 45°31' W 122°40'0 0.0
2017-Oct-27 15:41N 45°31' W 122°40'0 0.0
2017-Oct-27 15:29N 45°31' W 122°40'0 0.0
2017-Oct-27 14:59N 45°31' W 122°40'0 0.0
2017-Oct-27 14:30N 45°31' W 122°40'0 0.0
2017-Oct-27 14:00N 45°31' W 122°40'2 3.6
2017-Oct-27 13:30N 45°33' W 122°41'3 6.5
2017-Oct-27 13:00N 45°35' W 122°45'3 6.1
2017-Oct-27 12:31N 45°37' W 122°47'4 6.3
2017-Oct-27 11:52N 45°41' W 122°47'3 7.6
2017-Oct-27 11:30N 45°44' W 122°46'4 7.2
2017-Oct-27 11:01N 45°47' W 122°47'0 0.3
2017-Oct-27 10:20N 45°47' W 122°47'3 8.8
2017-Oct-27 10:01N 45°44' W 122°46'4 8.5
2017-Oct-27 09:31N 45°40' W 122°46'4 7.0
2017-Oct-27 09:01N 45°38' W 122°42'4 7.4
2017-Oct-27 08:30N 45°36' W 122°38'4 7.8
2017-Oct-27 08:00N 45°36' W 122°32'4 7.7
2017-Oct-27 07:29N 45°34' W 122°27'4 7.6
2017-Oct-27 07:00N 45°34' W 122°22'4 7.3
2017-Oct-27 06:31N 45°33' W 122°17'4 7.7
2017-Oct-27 06:00N 45°34' W 122°12'4 7.1
2017-Oct-27 05:30N 45°35' W 122°07'4 7.5
2017-Oct-27 05:00N 45°37' W 122°02'  
2017-Oct-22 16:42N 45°38' W 121°56'1 2.0
2017-Oct-22 16:25N 45°38' W 121°57'1 2.7
2017-Oct-22 16:00N 45°38' W 121°58'4 8.1
2017-Oct-22 15:30N 45°36' W 122°04'510.4
2017-Oct-22 15:00N 45°35' W 122°11'5 9.7
2017-Oct-22 14:30N 45°33' W 122°17'1 2.1
2017-Oct-22 14:00N 45°33' W 122°18'0 0.0
2017-Oct-22 13:30N 45°33' W 122°18'0 0.0
2017-Oct-22 13:00N 45°33' W 122°18'0 0.0
2017-Oct-22 12:30N 45°33' W 122°18'0 0.0
2017-Oct-22 11:53N 45°33' W 122°18'0 0.0
2017-Oct-22 11:30N 45°33' W 122°18'0 0.0
2017-Oct-22 10:57N 45°33' W 122°18'0 0.0
2017-Oct-22 10:29N 45°33' W 122°18'0 0.0
2017-Oct-22 09:59N 45°33' W 122°18'0 0.0
2017-Oct-22 09:24N 45°33' W 122°18'0 0.0
2017-Oct-22 08:39N 45°33' W 122°18'0 0.0
2017-Oct-22 08:24N 45°33' W 122°18'0 0.0
2017-Oct-22 07:53N 45°33' W 122°18'0 0.0
2017-Oct-22 07:29N 45°33' W 122°18'0 0.0
2017-Oct-22 06:56N 45°33' W 122°18'0 0.0
2017-Oct-22 06:18N 45°33' W 122°18'0 0.0
2017-Oct-22 05:59N 45°33' W 122°18'0 0.2
2017-Oct-22 05:30N 45°33' W 122°19'4 8.2
2017-Oct-22 05:00N 45°34' W 122°24'4 9.0
2017-Oct-22 04:30N 45°35' W 122°30'5 9.5
2017-Oct-22 04:00N 45°36' W 122°37'5 9.9
2017-Oct-22 03:29N 45°39' W 122°44'3 6.8
2017-Oct-22 03:00N 45°36' W 122°47'3 6.5
2017-Oct-22 02:30N 45°34' W 122°44'4 8.0
2017-Oct-22 02:00N 45°31' W 122°40'0 0.2
2017-Oct-22 01:19N 45°31' W 122°40'0 0.0
2017-Oct-22 00:58N 45°31' W 122°40'0 0.0
2017-Oct-22 00:28N 45°31' W 122°40'0 0.0
2017-Oct-21 23:52N 45°31' W 122°40'0 0.0
2017-Oct-21 23:28N 45°31' W 122°40'0 0.0
2017-Oct-21 22:49N 45°31' W 122°40'0 0.0
2017-Oct-21 22:13N 45°31' W 122°40'0 0.0
2017-Oct-21 21:49N 45°31' W 122°40'0 0.0
2017-Oct-21 21:13N 45°31' W 122°40'0 0.0
2017-Oct-21 20:25N 45°31' W 122°40'0 0.0
2017-Oct-21 19:49N 45°31' W 122°40'0 0.0
2017-Oct-21 18:55N 45°31' W 122°40'0 0.0
2017-Oct-21 18:19N 45°31' W 122°40'0 0.0
2017-Oct-21 17:01N 45°31' W 122°40'0 0.0
2017-Oct-21 16:49N 45°31' W 122°40'0 0.0
2017-Oct-21 16:19N 45°31' W 122°40'0 0.0
2017-Oct-21 15:55N 45°31' W 122°40'  

Dump ship's entire track history